EGYM

RAF Marham

Airport
ICAO code
EGYM
IATA Code
KNF
Summary
ICAO Region
EUR
ICAO Territory
Location

, England

Serving
Marham
Elevation
75 ft
Coordinates
52° 38' 54" N , 0° 33' 2" E
Metar
EGYM 041020Z 16008KT 9999 FEW030 08/04 Q1010 NOSIG RMK BLU

Runways

Designator Length Width Surface Rops
1/19 1855 91 CON No/No
6/24 2786 61 ASP No/No

Airport map

Aerial View

SKYbrary Partners:

Safety knowledge contributed by: